sensor_id;sensor_type;location;lat;lon;timestamp;pressure;altitude;pressure_sealevel;temperature;humidity
77159;BME280;66129;45.890;13.714;2023-01-08T00:00:48;101539.38;;;8.15;89.46
77159;BME280;66129;45.890;13.714;2023-01-08T00:03:14;101540.09;;;8.12;89.55
77159;BME280;66129;45.890;13.714;2023-01-08T00:05:40;101539.59;;;8.19;89.41
77159;BME280;66129;45.890;13.714;2023-01-08T00:08:06;101541.34;;;8.20;89.53
77159;BME280;66129;45.890;13.714;2023-01-08T00:10:33;101561.53;;;8.35;89.71
77159;BME280;66129;45.890;13.714;2023-01-08T00:12:59;101539.88;;;8.27;90.17
77159;BME280;66129;45.890;13.714;2023-01-08T00:15:25;101534.47;;;8.19;90.31
77159;BME280;66129;45.890;13.714;2023-01-08T00:17:50;101523.25;;;8.16;90.32
77159;BME280;66129;45.890;13.714;2023-01-08T00:20:16;101525.72;;;8.14;90.37
77159;BME280;66129;45.890;13.714;2023-01-08T00:22:41;101529.38;;;8.19;90.56
77159;BME280;66129;45.890;13.714;2023-01-08T00:25:07;101536.91;;;8.16;90.80
77159;BME280;66129;45.890;13.714;2023-01-08T00:27:33;101543.97;;;8.22;91.25
77159;BME280;66129;45.890;13.714;2023-01-08T00:29:58;101530.69;;;8.11;91.32
77159;BME280;66129;45.890;13.714;2023-01-08T00:32:23;101555.94;;;8.23;91.35
77159;BME280;66129;45.890;13.714;2023-01-08T00:34:49;101535.75;;;8.10;91.56
77159;BME280;66129;45.890;13.714;2023-01-08T00:37:14;101553.28;;;8.21;91.50
77159;BME280;66129;45.890;13.714;2023-01-08T00:39:43;101538.72;;;8.19;91.59
77159;BME280;66129;45.890;13.714;2023-01-08T00:42:09;101530.13;;;8.17;91.53
77159;BME280;66129;45.890;13.714;2023-01-08T00:44:34;101530.81;;;8.14;91.45
77159;BME280;66129;45.890;13.714;2023-01-08T00:47:00;101565.50;;;8.28;91.88
77159;BME280;66129;45.890;13.714;2023-01-08T00:49:25;101522.94;;;8.08;91.75
77159;BME280;66129;45.890;13.714;2023-01-08T00:51:51;101549.00;;;8.20;91.64
77159;BME280;66129;45.890;13.714;2023-01-08T00:54:16;101548.44;;;8.27;92.34
77159;BME280;66129;45.890;13.714;2023-01-08T00:56:42;101535.06;;;8.14;92.17
77159;BME280;66129;45.890;13.714;2023-01-08T00:59:07;101549.13;;;8.23;92.38
77159;BME280;66129;45.890;13.714;2023-01-08T01:01:33;101535.50;;;8.23;92.25
77159;BME280;66129;45.890;13.714;2023-01-08T01:03:58;101533.47;;;8.16;92.38
77159;BME280;66129;45.890;13.714;2023-01-08T01:06:24;101527.28;;;8.11;91.77
77159;BME280;66129;45.890;13.714;2023-01-08T01:08:49;101542.22;;;8.21;91.90
77159;BME280;66129;45.890;13.714;2023-01-08T01:11:23;101550.75;;;8.21;91.68
77159;BME280;66129;45.890;13.714;2023-01-08T01:13:49;101541.13;;;8.16;91.51
77159;BME280;66129;45.890;13.714;2023-01-08T01:16:15;101534.19;;;8.13;91.63
77159;BME280;66129;45.890;13.714;2023-01-08T01:18:41;101541.72;;;8.10;91.32
77159;BME280;66129;45.890;13.714;2023-01-08T01:23:44;101568.06;;;8.28;91.35
77159;BME280;66129;45.890;13.714;2023-01-08T01:26:17;101560.00;;;8.19;91.46
77159;BME280;66129;45.890;13.714;2023-01-08T01:28:46;101533.88;;;8.06;91.23
77159;BME280;66129;45.890;13.714;2023-01-08T01:31:12;101531.31;;;8.06;91.06
77159;BME280;66129;45.890;13.714;2023-01-08T01:33:38;101558.06;;;8.14;91.51
77159;BME280;66129;45.890;13.714;2023-01-08T01:36:05;101531.19;;;8.03;91.50
77159;BME280;66129;45.890;13.714;2023-01-08T01:38:31;101564.44;;;8.23;91.59
77159;BME280;66129;45.890;13.714;2023-01-08T01:40:57;101527.84;;;8.04;91.50
77159;BME280;66129;45.890;13.714;2023-01-08T01:43:39;101539.91;;;8.08;92.12
77159;BME280;66129;45.890;13.714;2023-01-08T01:48:41;101526.09;;;8.03;91.64
77159;BME280;66129;45.890;13.714;2023-01-08T01:51:07;101503.47;;;7.91;92.25
77159;BME280;66129;45.890;13.714;2023-01-08T01:53:33;101528.78;;;8.06;92.14
77159;BME280;66129;45.890;13.714;2023-01-08T01:56:00;101512.09;;;7.93;92.23
77159;BME280;66129;45.890;13.714;2023-01-08T01:58:29;101507.03;;;7.95;92.37
77159;BME280;66129;45.890;13.714;2023-01-08T02:01:00;101518.13;;;7.95;92.17
77159;BME280;66129;45.890;13.714;2023-01-08T02:03:33;101507.09;;;7.96;91.96
77159;BME280;66129;45.890;13.714;2023-01-08T02:08:54;101514.50;;;7.90;92.07
77159;BME280;66129;45.890;13.714;2023-01-08T02:11:25;101528.34;;;7.95;92.23
77159;BME280;66129;45.890;13.714;2023-01-08T02:14:11;101511.53;;;8.00;92.14
77159;BME280;66129;45.890;13.714;2023-01-08T02:16:53;101540.09;;;8.12;92.14
77159;BME280;66129;45.890;13.714;2023-01-08T02:24:42;101529.53;;;8.03;92.81
77159;BME280;66129;45.890;13.714;2023-01-08T02:27:10;101498.38;;;7.91;92.37
77159;BME280;66129;45.890;13.714;2023-01-08T02:29:38;101492.22;;;8.07;91.72
77159;BME280;66129;45.890;13.714;2023-01-08T02:32:05;101501.22;;;8.18;91.54
77159;BME280;66129;45.890;13.714;2023-01-08T02:34:30;101505.03;;;8.27;91.02
77159;BME280;66129;45.890;13.714;2023-01-08T02:36:57;101488.38;;;8.16;91.00
77159;BME280;66129;45.890;13.714;2023-01-08T02:42:31;101481.03;;;8.03;91.90
77159;BME280;66129;45.890;13.714;2023-01-08T02:45:08;101522.47;;;8.17;91.93
77159;BME280;66129;45.890;13.714;2023-01-08T02:47:46;101514.81;;;8.17;92.48
77159;BME280;66129;45.890;13.714;2023-01-08T02:50:28;101484.38;;;8.02;91.91
77159;BME280;66129;45.890;13.714;2023-01-08T02:55:25;101479.88;;;7.97;92.51
77159;BME280;66129;45.890;13.714;2023-01-08T02:57:52;101473.91;;;7.96;92.25
77159;BME280;66129;45.890;13.714;2023-01-08T03:00:18;101486.94;;;8.02;92.24
77159;BME280;66129;45.890;13.714;2023-01-08T03:02:45;101472.31;;;7.98;92.61
77159;BME280;66129;45.890;13.714;2023-01-08T03:05:19;101463.03;;;8.00;92.19
77159;BME280;66129;45.890;13.714;2023-01-08T03:07:47;101456.84;;;7.95;92.33
77159;BME280;66129;45.890;13.714;2023-01-08T03:10:13;101445.09;;;7.99;91.90
77159;BME280;66129;45.890;13.714;2023-01-08T03:12:54;101439.84;;;7.96;91.74
77159;BME280;66129;45.890;13.714;2023-01-08T03:15:26;101452.75;;;7.99;92.58
77159;BME280;66129;45.890;13.714;2023-01-08T03:17:57;101451.72;;;7.94;92.29
77159;BME280;66129;45.890;13.714;2023-01-08T03:20:25;101473.41;;;8.05;92.59
77159;BME280;66129;45.890;13.714;2023-01-08T03:22:53;101454.34;;;7.97;92.22
77159;BME280;66129;45.890;13.714;2023-01-08T03:25:22;101425.00;;;7.86;92.18
77159;BME280;66129;45.890;13.714;2023-01-08T03:27:53;101455.50;;;8.03;91.97
77159;BME280;66129;45.890;13.714;2023-01-08T03:30:20;101456.56;;;8.08;92.00
77159;BME280;66129;45.890;13.714;2023-01-08T03:32:48;101437.06;;;7.90;92.10
77159;BME280;66129;45.890;13.714;2023-01-08T03:35:18;101479.31;;;8.04;92.52
77159;BME280;66129;45.890;13.714;2023-01-08T03:37:52;101436.69;;;7.81;93.18
77159;BME280;66129;45.890;13.714;2023-01-08T03:40:23;101430.66;;;7.79;92.92
77159;BME280;66129;45.890;13.714;2023-01-08T03:42:50;101436.00;;;7.85;92.25
77159;BME280;66129;45.890;13.714;2023-01-08T03:45:16;101454.84;;;7.88;92.35
77159;BME280;66129;45.890;13.714;2023-01-08T03:47:42;101430.53;;;7.76;92.30
77159;BME280;66129;45.890;13.714;2023-01-08T03:50:14;101424.59;;;7.77;92.71
77159;BME280;66129;45.890;13.714;2023-01-08T03:52:40;101436.88;;;7.85;93.14
77159;BME280;66129;45.890;13.714;2023-01-08T03:55:06;101427.59;;;7.87;92.81
77159;BME280;66129;45.890;13.714;2023-01-08T03:57:32;101446.25;;;8.07;92.27
77159;BME280;66129;45.890;13.714;2023-01-08T03:59:57;101414.16;;;7.91;92.22
77159;BME280;66129;45.890;13.714;2023-01-08T04:02:23;101407.03;;;8.05;91.80
77159;BME280;66129;45.890;13.714;2023-01-08T04:04:48;101433.28;;;8.21;91.46
77159;BME280;66129;45.890;13.714;2023-01-08T04:07:14;101419.00;;;8.06;91.91
77159;BME280;66129;45.890;13.714;2023-01-08T04:09:40;101406.38;;;7.88;92.29
77159;BME280;66129;45.890;13.714;2023-01-08T04:12:05;101448.53;;;7.99;92.35
77159;BME280;66129;45.890;13.714;2023-01-08T04:14:31;101410.91;;;7.75;92.38
77159;BME280;66129;45.890;13.714;2023-01-08T04:16:56;101424.56;;;7.75;92.77
77159;BME280;66129;45.890;13.714;2023-01-08T04:19:22;101430.78;;;7.82;92.57
77159;BME280;66129;45.890;13.714;2023-01-08T04:21:51;101405.69;;;7.72;92.83
77159;BME280;66129;45.890;13.714;2023-01-08T04:24:17;101416.91;;;7.75;92.90
77159;BME280;66129;45.890;13.714;2023-01-08T04:26:43;101416.22;;;7.79;92.70
77159;BME280;66129;45.890;13.714;2023-01-08T04:29:10;101404.06;;;7.74;93.29
77159;BME280;66129;45.890;13.714;2023-01-08T04:31:36;101437.25;;;7.94;93.11
77159;BME280;66129;45.890;13.714;2023-01-08T04:34:02;101406.56;;;7.72;93.63
77159;BME280;66129;45.890;13.714;2023-01-08T04:36:27;101413.28;;;7.70;93.55
77159;BME280;66129;45.890;13.714;2023-01-08T04:38:55;101422.22;;;7.81;93.72
77159;BME280;66129;45.890;13.714;2023-01-08T04:41:20;101437.81;;;7.87;93.34
77159;BME280;66129;45.890;13.714;2023-01-08T04:43:46;101432.41;;;7.80;93.21
77159;BME280;66129;45.890;13.714;2023-01-08T04:46:11;101454.00;;;7.88;93.50
77159;BME280;66129;45.890;13.714;2023-01-08T04:48:37;101420.13;;;7.71;93.63
77159;BME280;66129;45.890;13.714;2023-01-08T04:51:03;101409.03;;;7.71;93.63
77159;BME280;66129;45.890;13.714;2023-01-08T04:53:29;101420.25;;;7.74;93.16
77159;BME280;66129;45.890;13.714;2023-01-08T04:56:05;101412.63;;;7.74;93.05
77159;BME280;66129;45.890;13.714;2023-01-08T04:58:33;101421.34;;;7.79;93.28
77159;BME280;66129;45.890;13.714;2023-01-08T05:00:58;101407.13;;;7.66;93.47
77159;BME280;66129;45.890;13.714;2023-01-08T05:03:24;101407.53;;;7.56;93.99
77159;BME280;66129;45.890;13.714;2023-01-08T05:05:50;101418.25;;;7.68;93.83
77159;BME280;66129;45.890;13.714;2023-01-08T05:08:16;101407.25;;;7.68;93.33
77159;BME280;66129;45.890;13.714;2023-01-08T05:10:41;101413.34;;;7.72;93.39
77159;BME280;66129;45.890;13.714;2023-01-08T05:13:07;101416.91;;;7.75;93.09
77159;BME280;66129;45.890;13.714;2023-01-08T05:15:32;101410.78;;;7.72;93.56
77159;BME280;66129;45.890;13.714;2023-01-08T05:18:03;101404.03;;;7.72;93.83
77159;BME280;66129;45.890;13.714;2023-01-08T05:20:31;101417.84;;;7.77;94.44
77159;BME280;66129;45.890;13.714;2023-01-08T05:22:56;101407.28;;;7.70;94.13
77159;BME280;66129;45.890;13.714;2023-01-08T05:25:22;101407.25;;;7.68;94.17
77159;BME280;66129;45.890;13.714;2023-01-08T05:27:48;101400.31;;;7.66;94.44
77159;BME280;66129;45.890;13.714;2023-01-08T05:30:14;101392.44;;;7.60;94.65
77159;BME280;66129;45.890;13.714;2023-01-08T05:32:39;101418.53;;;7.73;94.82
77159;BME280;66129;45.890;13.714;2023-01-08T05:35:05;101414.03;;;7.68;94.38
77159;BME280;66129;45.890;13.714;2023-01-08T05:37:33;101418.69;;;7.78;93.72
77159;BME280;66129;45.890;13.714;2023-01-08T05:39:59;101390.03;;;7.63;94.06
77159;BME280;66129;45.890;13.714;2023-01-08T05:42:24;101401.34;;;7.69;93.65
77159;BME280;66129;45.890;13.714;2023-01-08T05:44:50;101382.66;;;7.70;93.40
77159;BME280;66129;45.890;13.714;2023-01-08T05:47:15;101373.44;;;7.74;93.02
77159;BME280;66129;45.890;13.714;2023-01-08T05:49:41;101410.97;;;7.97;93.02
77159;BME280;66129;45.890;13.714;2023-01-08T05:52:06;101374.69;;;7.83;92.51
77159;BME280;66129;45.890;13.714;2023-01-08T05:54:32;101367.91;;;7.84;92.56
77159;BME280;66129;45.890;13.714;2023-01-08T05:56:57;101373.06;;;7.85;92.60
77159;BME280;66129;45.890;13.714;2023-01-08T05:59:22;101378.13;;;7.84;92.81
77159;BME280;66129;45.890;13.714;2023-01-08T06:01:48;101375.94;;;7.72;93.19
77159;BME280;66129;45.890;13.714;2023-01-08T06:04:13;101371.34;;;7.64;93.25
77159;BME280;66129;45.890;13.714;2023-01-08T06:06:39;101374.81;;;7.66;93.54
77159;BME280;66129;45.890;13.714;2023-01-08T06:09:04;101365.06;;;7.56;93.62
77159;BME280;66129;45.890;13.714;2023-01-08T06:11:30;101389.53;;;7.71;94.11
77159;BME280;66129;45.890;13.714;2023-01-08T06:13:55;101382.66;;;7.70;93.71
77159;BME280;66129;45.890;13.714;2023-01-08T06:16:21;101365.19;;;7.59;93.68
77159;BME280;66129;45.890;13.714;2023-01-08T06:18:46;101380.94;;;7.69;94.25
77159;BME280;66129;45.890;13.714;2023-01-08T06:21:12;101391.25;;;7.72;93.87
77159;BME280;66129;45.890;13.714;2023-01-08T06:23:38;101387.56;;;7.66;93.85
77159;BME280;66129;45.890;13.714;2023-01-08T06:26:04;101389.13;;;7.63;94.14
77159;BME280;66129;45.890;13.714;2023-01-08T06:28:31;101395.34;;;7.69;94.18
77159;BME280;66129;45.890;13.714;2023-01-08T06:31:09;101370.84;;;7.52;93.85
77159;BME280;66129;45.890;13.714;2023-01-08T06:33:37;101374.84;;;7.46;91.76
77159;BME280;66129;45.890;13.714;2023-01-08T06:36:05;101385.16;;;7.49;92.52
77159;BME280;66129;45.890;13.714;2023-01-08T06:38:48;101381.78;;;7.50;92.19
77159;BME280;66129;45.890;13.714;2023-01-08T06:41:14;101366.78;;;7.37;92.01
77159;BME280;66129;45.890;13.714;2023-01-08T06:44:07;101363.81;;;7.26;93.67
77159;BME280;66129;45.890;13.714;2023-01-08T06:46:42;101363.72;;;7.25;92.37
77159;BME280;66129;45.890;13.714;2023-01-08T06:49:08;101355.56;;;7.13;93.06
77159;BME280;66129;45.890;13.714;2023-01-08T06:51:34;101366.84;;;7.18;93.85
77159;BME280;66129;45.890;13.714;2023-01-08T06:54:03;101373.19;;;7.27;94.58
77159;BME280;66129;45.890;13.714;2023-01-08T06:56:28;101355.50;;;7.11;93.70
77159;BME280;66129;45.890;13.714;2023-01-08T06:58:56;101354.09;;;7.18;94.81
77159;BME280;66129;45.890;13.714;2023-01-08T07:01:27;101376.84;;;7.34;95.63
77159;BME280;66129;45.890;13.714;2023-01-08T07:04:19;101353.66;;;7.28;96.00
77159;BME280;66129;45.890;13.714;2023-01-08T07:07:24;101373.69;;;7.19;91.85
77159;BME280;66129;45.890;13.714;2023-01-08T07:09:52;101379.31;;;6.93;91.28
77159;BME280;66129;45.890;13.714;2023-01-08T07:12:21;101345.66;;;6.62;92.21
77159;BME280;66129;45.890;13.714;2023-01-08T07:18:19;101341.25;;;6.77;95.90
77159;BME280;66129;45.890;13.714;2023-01-08T07:20:55;101348.41;;;6.85;96.22
77159;BME280;66129;45.890;13.714;2023-01-08T07:23:56;101354.72;;;6.93;95.04
77159;BME280;66129;45.890;13.714;2023-01-08T07:26:21;101369.78;;;7.08;95.35
77159;BME280;66129;45.890;13.714;2023-01-08T07:28:47;101362.19;;;7.09;94.78
77159;BME280;66129;45.890;13.714;2023-01-08T07:31:15;101360.56;;;7.30;94.77
77159;BME280;66129;45.890;13.714;2023-01-08T07:33:41;101350.84;;;7.22;94.97
77159;BME280;66129;45.890;13.714;2023-01-08T07:36:07;101383.75;;;7.36;95.12
77159;BME280;66129;45.890;13.714;2023-01-08T07:38:32;101375.38;;;7.39;94.79
77159;BME280;66129;45.890;13.714;2023-01-08T07:40:58;101380.59;;;7.42;94.97
77159;BME280;66129;45.890;13.714;2023-01-08T07:46:44;101347.03;;;7.31;95.46
77159;BME280;66129;45.890;13.714;2023-01-08T07:49:13;101352.59;;;7.43;95.42
77159;BME280;66129;45.890;13.714;2023-01-08T07:51:41;101368.28;;;7.52;94.79
77159;BME280;66129;45.890;13.714;2023-01-08T07:54:07;101366.13;;;7.61;95.11
77159;BME280;66129;45.890;13.714;2023-01-08T07:56:32;101326.16;;;7.41;95.02
77159;BME280;66129;45.890;13.714;2023-01-08T07:58:58;101343.47;;;7.48;94.84
77159;BME280;66129;45.890;13.714;2023-01-08T08:01:23;101347.81;;;7.51;94.52
77159;BME280;66129;45.890;13.714;2023-01-08T08:04:13;101342.63;;;7.48;94.66
77159;BME280;66129;45.890;13.714;2023-01-08T08:06:45;101341.81;;;7.49;94.70
77159;BME280;66129;45.890;13.714;2023-01-08T08:09:10;101345.16;;;7.48;95.10
77159;BME280;66129;45.890;13.714;2023-01-08T08:11:36;101350.56;;;7.55;94.91
77159;BME280;66129;45.890;13.714;2023-01-08T08:14:02;101335.00;;;7.49;94.82
77159;BME280;66129;45.890;13.714;2023-01-08T08:16:35;101330.66;;;7.47;94.80
77159;BME280;66129;45.890;13.714;2023-01-08T08:19:01;101353.38;;;7.61;94.94
77159;BME280;66129;45.890;13.714;2023-01-08T08:21:26;101363.91;;;7.70;94.54
77159;BME280;66129;45.890;13.714;2023-01-08T08:23:54;101336.88;;;7.53;94.69
77159;BME280;66129;45.890;13.714;2023-01-08T08:26:23;101326.69;;;7.53;94.45
77159;BME280;66129;45.890;13.714;2023-01-08T08:28:51;101322.69;;;7.60;94.53
77159;BME280;66129;45.890;13.714;2023-01-08T08:31:16;101312.34;;;7.57;94.34
77159;BME280;66129;45.890;13.714;2023-01-08T08:33:42;101331.44;;;7.66;94.07
77159;BME280;66129;45.890;13.714;2023-01-08T08:36:08;101328.66;;;7.60;94.05
77159;BME280;66129;45.890;13.714;2023-01-08T08:38:35;101342.59;;;7.68;93.91
77159;BME280;66129;45.890;13.714;2023-01-08T08:41:01;101342.59;;;7.68;94.12
77159;BME280;66129;45.890;13.714;2023-01-08T08:43:27;101326.97;;;7.61;94.17
77159;BME280;66129;45.890;13.714;2023-01-08T08:45:54;101329.13;;;7.72;94.22
77159;BME280;66129;45.890;13.714;2023-01-08T08:48:23;101325.91;;;7.76;93.88
77159;BME280;66129;45.890;13.714;2023-01-08T08:50:52;101329.47;;;7.79;93.30
77159;BME280;66129;45.890;13.714;2023-01-08T08:53:17;101325.03;;;7.75;93.44
77159;BME280;66129;45.890;13.714;2023-01-08T08:55:43;101311.28;;;7.72;93.71
77159;BME280;66129;45.890;13.714;2023-01-08T08:58:12;101313.22;;;7.77;93.84
77159;BME280;66129;45.890;13.714;2023-01-08T09:00:39;101313.38;;;7.82;94.20
77159;BME280;66129;45.890;13.714;2023-01-08T09:03:05;101315.94;;;7.82;93.58
77159;BME280;66129;45.890;13.714;2023-01-08T09:05:34;101303.09;;;7.80;93.61
77159;BME280;66129;45.890;13.714;2023-01-08T09:08:20;101284.34;;;7.78;94.07
77159;BME280;66129;45.890;13.714;2023-01-08T09:10:45;101302.53;;;7.87;94.19
77159;BME280;66129;45.890;13.714;2023-01-08T09:13:21;101293.91;;;7.84;93.54
77159;BME280;66129;45.890;13.714;2023-01-08T09:15:59;101313.22;;;7.99;93.59
77159;BME280;66129;45.890;13.714;2023-01-08T09:18:37;101315.78;;;7.99;93.57
77159;BME280;66129;45.890;13.714;2023-01-08T09:21:14;101293.94;;;7.85;93.15
77159;BME280;66129;45.890;13.714;2023-01-08T09:23:47;101310.91;;;8.05;92.82
77159;BME280;66129;45.890;13.714;2023-01-08T09:26:12;101277.94;;;7.89;92.90
77159;BME280;66129;45.890;13.714;2023-01-08T09:28:41;101293.97;;;8.07;92.14
77159;BME280;66129;45.890;13.714;2023-01-08T09:31:43;101289.38;;;7.99;91.80
77159;BME280;66129;45.890;13.714;2023-01-08T09:34:18;101307.47;;;8.05;91.29
77159;BME280;66129;45.890;13.714;2023-01-08T09:37:16;101306.38;;;7.98;91.24
77159;BME280;66129;45.890;13.714;2023-01-08T09:39:50;101315.13;;;8.05;91.33
77159;BME280;66129;45.890;13.714;2023-01-08T09:42:36;101306.22;;;8.16;91.52
77159;BME280;66129;45.890;13.714;2023-01-08T09:45:20;101270.53;;;8.17;92.42
77159;BME280;66129;45.890;13.714;2023-01-08T09:47:50;101271.97;;;8.33;92.26
77159;BME280;66129;45.890;13.714;2023-01-08T09:50:19;101279.81;;;8.37;91.58
77159;BME280;66129;45.890;13.714;2023-01-08T09:52:49;101261.44;;;8.24;89.81
77159;BME280;66129;45.890;13.714;2023-01-08T09:55:25;101283.94;;;8.34;89.17
77159;BME280;66129;45.890;13.714;2023-01-08T09:58:26;101293.56;;;8.41;89.95
77159;BME280;66129;45.890;13.714;2023-01-08T10:01:12;101264.03;;;8.25;91.41
77159;BME280;66129;45.890;13.714;2023-01-08T10:04:25;101271.94;;;8.31;91.73
77159;BME280;66129;45.890;13.714;2023-01-08T10:07:28;101251.97;;;8.21;91.20
77159;BME280;66129;45.890;13.714;2023-01-08T10:10:35;101269.50;;;8.34;91.76
77159;BME280;66129;45.890;13.714;2023-01-08T10:13:23;101247.09;;;8.27;91.84
77159;BME280;66129;45.890;13.714;2023-01-08T10:16:38;101255.91;;;8.35;91.81
77159;BME280;66129;45.890;13.714;2023-01-08T10:19:34;101275.72;;;8.42;91.40
77159;BME280;66129;45.890;13.714;2023-01-08T10:31:49;101224.75;;;8.22;91.62
77159;BME280;66129;45.890;13.714;2023-01-08T10:34:30;101264.41;;;8.36;90.97
77159;BME280;66129;45.890;13.714;2023-01-08T10:43:27;101215.00;;;8.12;90.96
77159;BME280;66129;45.890;13.714;2023-01-08T10:46:11;101238.53;;;8.27;91.49
77159;BME280;66129;45.890;13.714;2023-01-08T10:48:45;101237.63;;;8.25;91.34
77159;BME280;66129;45.890;13.714;2023-01-08T10:51:21;101238.53;;;8.27;91.17
77159;BME280;66129;45.890;13.714;2023-01-08T10:53:48;101226.38;;;8.20;91.23
77159;BME280;66129;45.890;13.714;2023-01-08T10:56:25;101226.69;;;8.29;91.47
77159;BME280;66129;45.890;13.714;2023-01-08T10:58:52;101220.66;;;8.27;91.74
77159;BME280;66129;45.890;13.714;2023-01-08T11:01:22;101212.31;;;8.31;91.75
77159;BME280;66129;45.890;13.714;2023-01-08T11:03:59;101204.63;;;8.31;91.50
77159;BME280;66129;45.890;13.714;2023-01-08T11:06:30;101209.81;;;8.32;90.54
77159;BME280;66129;45.890;13.714;2023-01-08T11:09:23;101181.41;;;8.23;90.48
77159;BME280;66129;45.890;13.714;2023-01-08T11:11:50;101204.03;;;8.38;90.73
77159;BME280;66129;45.890;13.714;2023-01-08T11:14:29;101188.50;;;8.32;91.38
77159;BME280;66129;45.890;13.714;2023-01-08T11:17:09;101176.50;;;8.29;91.23
77159;BME280;66129;45.890;13.714;2023-01-08T11:20:04;101190.56;;;8.42;91.21
77159;BME280;66129;45.890;13.714;2023-01-08T11:22:39;101158.41;;;8.23;91.29
77159;BME280;66129;45.890;13.714;2023-01-08T11:25:11;101182.94;;;8.43;91.25
77159;BME280;66129;45.890;13.714;2023-01-08T11:28:05;101168.25;;;8.36;91.13
77159;BME280;66129;45.890;13.714;2023-01-08T12:06:50;101123.91;;;8.11;89.18
77159;BME280;66129;45.890;13.714;2023-01-08T12:09:42;101137.25;;;8.04;88.43
77159;BME280;66129;45.890;13.714;2023-01-08T12:46:13;101071.84;;;7.37;91.29
77159;BME280;66129;45.890;13.714;2023-01-08T12:55:41;101052.28;;;7.60;94.34
77159;BME280;66129;45.890;13.714;2023-01-08T14:02:44;100987.22;;;7.95;93.61
77159;BME280;66129;45.890;13.714;2023-01-08T14:08:23;100961.34;;;7.85;93.85
77159;BME280;66129;45.890;13.714;2023-01-08T14:11:09;101007.16;;;8.07;93.74
77159;BME280;66129;45.890;13.714;2023-01-08T14:13:41;100960.53;;;7.86;93.22
77159;BME280;66129;45.890;13.714;2023-01-08T14:19:06;100970.84;;;7.89;93.79
77159;BME280;66129;45.890;13.714;2023-01-08T14:22:10;100971.31;;;7.77;93.49
77159;BME280;66129;45.890;13.714;2023-01-08T15:22:50;100914.59;;;7.86;93.92
77159;BME280;66129;45.890;13.714;2023-01-08T15:28:31;100900.13;;;7.86;93.82
77159;BME280;66129;45.890;13.714;2023-01-08T15:30:57;100944.03;;;8.01;94.01
77159;BME280;66129;45.890;13.714;2023-01-08T15:33:44;100934.78;;;8.05;94.30
77159;BME280;66129;45.890;13.714;2023-01-08T15:36:19;100918.28;;;7.94;94.17
77159;BME280;66129;45.890;13.714;2023-01-08T15:38:46;100918.19;;;7.92;94.26
77159;BME280;66129;45.890;13.714;2023-01-08T15:41:21;100917.59;;;7.99;94.02
77159;BME280;66129;45.890;13.714;2023-01-08T15:44:07;100894.13;;;7.84;93.99
77159;BME280;66129;45.890;13.714;2023-01-08T15:46:36;100895.09;;;7.88;93.84
77159;BME280;66129;45.890;13.714;2023-01-08T15:49:09;100932.44;;;8.11;93.93
77159;BME280;66129;45.890;13.714;2023-01-08T15:51:37;100926.38;;;8.07;94.30
77159;BME280;66129;45.890;13.714;2023-01-08T15:54:13;100913.97;;;7.93;94.09
77159;BME280;66129;45.890;13.714;2023-01-08T15:56:39;100908.69;;;7.87;95.17
77159;BME280;66129;45.890;13.714;2023-01-08T15:59:10;100891.53;;;7.83;94.73
77159;BME280;66129;45.890;13.714;2023-01-08T16:01:36;100883.81;;;7.81;94.67
77159;BME280;66129;45.890;13.714;2023-01-08T16:04:09;100884.38;;;7.73;94.95
77159;BME280;66129;45.890;13.714;2023-01-08T16:06:43;100880.88;;;7.96;93.93
77159;BME280;66129;45.890;13.714;2023-01-08T16:09:25;100871.34;;;7.90;93.73
77159;BME280;66129;45.890;13.714;2023-01-08T16:11:51;100890.59;;;7.81;94.49
77159;BME280;66129;45.890;13.714;2023-01-08T16:14:24;100879.06;;;7.92;94.63
77159;BME280;66129;45.890;13.714;2023-01-08T16:16:57;100899.97;;;8.07;94.02
77159;BME280;66129;45.890;13.714;2023-01-08T16:19:28;100867.94;;;7.90;94.76
77159;BME280;66129;45.890;13.714;2023-01-08T16:22:06;100865.28;;;7.87;94.58
77159;BME280;66129;45.890;13.714;2023-01-08T16:24:36;100904.81;;;7.99;94.68
77159;BME280;66129;45.890;13.714;2023-01-08T16:27:02;100877.38;;;7.92;94.46
77159;BME280;66129;45.890;13.714;2023-01-08T16:29:28;100893.91;;;8.03;94.97
77159;BME280;66129;45.890;13.714;2023-01-08T16:31:54;100879.63;;;7.83;95.11
77159;BME280;66129;45.890;13.714;2023-01-08T16:34:20;100868.03;;;7.93;94.79
77159;BME280;66129;45.890;13.714;2023-01-08T16:36:47;100889.00;;;8.09;94.16
77159;BME280;66129;45.890;13.714;2023-01-08T16:39:12;100868.19;;;7.97;94.10
77159;BME280;66129;45.890;13.714;2023-01-08T16:41:38;100885.47;;;8.06;94.51
77159;BME280;66129;45.890;13.714;2023-01-08T16:44:03;100893.41;;;8.15;94.16
77159;BME280;66129;45.890;13.714;2023-01-08T16:49:36;100863.66;;;7.89;94.02
77159;BME280;66129;45.890;13.714;2023-01-08T16:52:08;100892.06;;;7.99;94.21
77159;BME280;66129;45.890;13.714;2023-01-08T16:54:34;100887.06;;;8.02;94.25
77159;BME280;66129;45.890;13.714;2023-01-08T16:56:59;100893.13;;;8.06;94.40
77159;BME280;66129;45.890;13.714;2023-01-08T16:59:25;100883.38;;;7.94;94.80
77159;BME280;66129;45.890;13.714;2023-01-08T17:02:11;100845.63;;;7.84;94.72
77159;BME280;66129;45.890;13.714;2023-01-08T17:04:39;100868.94;;;7.95;94.80
77159;BME280;66129;45.890;13.714;2023-01-08T17:07:21;100873.97;;;7.92;95.36
77159;BME280;66129;45.890;13.714;2023-01-08T17:09:55;100870.44;;;7.88;95.02
77159;BME280;66129;45.890;13.714;2023-01-08T17:12:21;100872.41;;;7.97;95.47
77159;BME280;66129;45.890;13.714;2023-01-08T17:14:49;100855.19;;;7.90;95.19
77159;BME280;66129;45.890;13.714;2023-01-08T17:17:15;100846.50;;;7.85;95.55
77159;BME280;66129;45.890;13.714;2023-01-08T17:19:41;100858.69;;;7.93;95.24
77159;BME280;66129;45.890;13.714;2023-01-08T17:22:22;100877.09;;;8.11;95.00